createdAt,value
2023-02-28T00:01:31.815Z,100706.75
2023-02-28T00:03:58.829Z,100673.16
2023-02-28T00:06:26.355Z,100717.66
2023-02-28T00:08:53.181Z,100708.41
2023-02-28T00:11:20.005Z,100693.88
2023-02-28T00:13:47.717Z,100662.56
2023-02-28T00:16:17.183Z,100677.38
2023-02-28T00:18:44.085Z,100702.59
2023-02-28T00:21:10.960Z,100682.44
2023-02-28T00:23:37.771Z,100617.50
2023-02-28T00:26:04.855Z,100679.88
2023-02-28T00:28:31.651Z,100680.38
2023-02-28T00:30:58.976Z,100724.00
2023-02-28T00:33:25.822Z,100702.16
2023-02-28T00:35:52.737Z,100713.31
2023-02-28T00:38:19.605Z,100731.78
2023-02-28T00:40:46.528Z,100670.69
2023-02-28T00:43:13.278Z,100736.13
2023-02-28T00:45:40.103Z,100730.97
2023-02-28T00:48:07.424Z,100749.72
2023-02-28T00:50:34.240Z,100738.78
2023-02-28T00:53:00.999Z,100733.97
2023-02-28T00:55:27.960Z,100726.38
2023-02-28T00:57:54.721Z,100714.00
2023-02-28T01:00:21.616Z,100736.69
2023-02-28T01:02:48.452Z,100750.91
2023-02-28T01:05:15.466Z,100746.38
2023-02-28T01:07:42.454Z,100749.97
2023-02-28T01:10:10.094Z,100618.94
2023-02-28T01:12:36.992Z,100747.09
2023-02-28T01:15:04.106Z,100689.13
2023-02-28T01:17:30.924Z,100705.00
2023-02-28T01:19:57.886Z,100700.16
2023-02-28T01:22:24.759Z,100729.38
2023-02-28T01:24:51.561Z,100739.50
2023-02-28T01:27:18.418Z,100598.84
2023-02-28T01:29:45.223Z,100712.94
2023-02-28T01:32:12.216Z,100717.19
2023-02-28T01:34:39.284Z,100731.44
2023-02-28T01:37:06.168Z,100768.13
2023-02-28T01:39:32.929Z,100738.19
2023-02-28T01:41:59.839Z,100771.47
2023-02-28T01:45:14.751Z,100764.81
2023-02-28T01:47:42.455Z,100765.28
2023-02-28T01:50:13.052Z,100752.69
2023-02-28T01:52:39.863Z,100742.88
2023-02-28T01:55:07.286Z,100679.53
2023-02-28T01:57:38.858Z,100678.09
2023-02-28T02:00:16.877Z,100727.88
2023-02-28T02:02:44.755Z,100780.78
2023-02-28T02:05:16.021Z,100762.28
2023-02-28T02:07:44.288Z,100731.38
2023-02-28T02:10:16.111Z,100783.50
2023-02-28T02:13:01.109Z,100783.25
2023-02-28T02:15:35.426Z,100777.25
2023-02-28T02:18:15.791Z,100784.19
2023-02-28T02:21:13.560Z,100795.38
2023-02-28T02:24:19.132Z,100795.13
2023-02-28T02:27:07.531Z,100811.81
2023-02-28T02:29:43.582Z,100822.94
2023-02-28T02:32:34.625Z,100825.13
2023-02-28T02:35:22.205Z,100826.16
2023-02-28T02:38:08.377Z,100829.56
2023-02-28T02:40:39.742Z,100842.88
2023-02-28T02:43:15.387Z,100845.25
2023-02-28T02:46:06.808Z,100824.50
2023-02-28T02:48:34.692Z,100848.56
2023-02-28T02:51:03.383Z,100840.22
2023-02-28T02:53:33.730Z,100843.31
2023-02-28T02:56:01.107Z,100809.31
2023-02-28T02:58:30.679Z,100803.72
2023-02-28T03:01:00.491Z,100769.97
2023-02-28T03:03:30.686Z,100832.28
2023-02-28T03:06:01.746Z,100814.25
2023-02-28T03:08:30.412Z,100805.84
2023-02-28T03:11:01.199Z,100781.38
2023-02-28T03:13:47.540Z,100794.38
2023-02-28T03:16:23.406Z,100837.69
2023-02-28T03:19:02.419Z,100832.97
2023-02-28T03:21:32.171Z,100833.00
2023-02-28T03:24:11.041Z,100834.97
2023-02-28T03:26:40.987Z,100828.47
2023-02-28T03:29:26.369Z,100824.94
2023-02-28T03:32:00.993Z,100817.09
2023-02-28T03:34:34.493Z,100796.25
2023-02-28T03:37:05.729Z,100777.03
2023-02-28T03:39:39.207Z,100814.25
2023-02-28T03:42:26.331Z,100775.81
2023-02-28T03:45:04.339Z,100787.06
2023-02-28T03:47:42.733Z,100663.78
2023-02-28T03:50:14.348Z,100764.22
2023-02-28T03:52:46.313Z,100801.88
2023-02-28T03:55:14.202Z,100805.34
2023-02-28T03:58:00.920Z,100806.44
2023-02-28T04:01:01.529Z,100805.66
2023-02-28T04:03:28.402Z,100803.09
2023-02-28T04:05:55.749Z,100815.44
2023-02-28T04:08:22.868Z,100777.84
2023-02-28T04:10:57.356Z,100799.72
2023-02-28T04:13:24.202Z,100813.34
2023-02-28T04:15:51.007Z,100825.69
2023-02-28T04:18:17.907Z,100799.91
2023-02-28T04:20:44.715Z,100787.72
2023-02-28T04:23:11.669Z,100763.06
2023-02-28T04:25:38.545Z,100833.69
2023-02-28T04:28:05.514Z,100822.81
2023-02-28T04:30:33.670Z,100840.31
2023-02-28T04:33:01.372Z,100702.16
2023-02-28T04:35:28.242Z,100829.88
2023-02-28T04:37:55.100Z,100788.66
2023-02-28T04:40:21.980Z,100831.34
2023-02-28T04:42:48.797Z,100827.66
2023-02-28T04:45:15.654Z,100811.16
2023-02-28T04:47:42.417Z,100780.75
2023-02-28T04:50:09.825Z,100831.09
2023-02-28T04:52:36.573Z,100793.72
2023-02-28T04:55:03.502Z,100869.84
2023-02-28T04:57:31.125Z,100858.22
2023-02-28T04:59:58.514Z,100873.84
2023-02-28T05:02:25.813Z,100873.19
2023-02-28T05:04:52.587Z,100851.13
2023-02-28T05:07:19.303Z,100885.56
2023-02-28T05:09:46.078Z,100840.00
2023-02-28T05:12:12.813Z,100884.31
2023-02-28T05:14:39.700Z,100832.69
2023-02-28T05:17:06.559Z,100898.81
2023-02-28T05:19:33.375Z,100858.53
2023-02-28T05:22:00.149Z,100895.25
2023-02-28T05:24:28.451Z,100854.97
2023-02-28T05:26:55.478Z,100907.53
2023-02-28T05:29:22.621Z,100922.88
2023-02-28T05:31:49.671Z,100891.03
2023-02-28T05:34:17.175Z,100910.84
2023-02-28T05:36:44.184Z,100928.59
2023-02-28T05:39:14.265Z,100902.63
2023-02-28T05:41:44.268Z,100885.19
2023-02-28T05:44:11.360Z,100944.03
2023-02-28T05:46:38.202Z,100931.09
2023-02-28T05:49:05.065Z,100943.22
2023-02-28T05:51:32.317Z,100955.69
2023-02-28T05:54:02.480Z,100927.53
2023-02-28T05:56:29.270Z,100910.84
2023-02-28T05:58:56.099Z,100948.19
2023-02-28T06:01:31.848Z,100962.84
2023-02-28T06:04:02.614Z,100921.56
2023-02-28T06:06:30.678Z,100921.88
2023-02-28T06:08:58.208Z,100955.47
2023-02-28T06:11:28.696Z,100969.69
2023-02-28T06:13:57.390Z,100988.28
2023-02-28T06:16:25.335Z,100961.84
2023-02-28T06:18:53.720Z,100974.03
2023-02-28T06:21:20.623Z,100984.09
2023-02-28T06:23:47.743Z,100878.59
2023-02-28T06:26:14.608Z,100934.72
2023-02-28T06:28:41.419Z,100975.06
2023-02-28T06:31:12.545Z,100960.16
2023-02-28T06:33:39.793Z,100984.84
2023-02-28T06:36:07.030Z,100921.75
2023-02-28T06:38:33.888Z,100955.50
2023-02-28T06:41:01.486Z,100955.84
2023-02-28T06:43:32.527Z,100951.91
2023-02-28T06:46:00.706Z,101010.00
2023-02-28T06:48:28.042Z,100960.22
2023-02-28T06:51:05.626Z,100969.66
2023-02-28T06:53:32.519Z,101013.38
2023-02-28T06:55:59.384Z,100990.75
2023-02-28T06:58:26.399Z,101011.44
2023-02-28T07:00:53.428Z,101021.59
2023-02-28T07:03:20.288Z,100997.56
2023-02-28T07:05:47.245Z,100971.53
2023-02-28T07:08:14.300Z,101016.03
2023-02-28T07:10:41.307Z,101031.09
2023-02-28T07:13:08.405Z,100995.06
2023-02-28T07:15:37.670Z,100987.69
2023-02-28T07:18:06.075Z,101025.06
2023-02-28T07:20:32.998Z,100999.72
2023-02-28T07:22:59.743Z,101057.59
2023-02-28T07:25:27.313Z,101037.19
2023-02-28T07:27:55.128Z,101063.88
2023-02-28T07:30:25.059Z,101031.66
2023-02-28T07:32:51.606Z,101053.31
2023-02-28T07:35:18.661Z,101068.66
2023-02-28T07:37:45.395Z,101063.31
2023-02-28T07:40:13.168Z,101061.56
2023-02-28T07:42:40.775Z,101056.69
2023-02-28T07:45:08.942Z,101069.63
2023-02-28T07:47:35.707Z,101037.50
2023-02-28T07:50:02.600Z,101079.34
2023-02-28T07:52:29.446Z,101034.38
2023-02-28T07:54:56.182Z,101072.50
2023-02-28T07:57:23.024Z,101084.03
2023-02-28T07:59:49.872Z,101086.84
2023-02-28T08:02:17.420Z,101093.03
2023-02-28T08:04:44.437Z,101061.31
2023-02-28T08:07:14.176Z,101099.19
2023-02-28T08:09:41.478Z,101066.84
2023-02-28T08:12:08.802Z,101057.50
2023-02-28T08:14:35.790Z,101085.72
2023-02-28T08:17:02.552Z,101070.75
2023-02-28T08:19:29.466Z,101113.16
2023-02-28T08:21:56.891Z,101101.19
2023-02-28T08:24:23.775Z,101092.88
2023-02-28T08:26:50.710Z,101118.47
2023-02-28T08:29:17.647Z,101085.22
2023-02-28T08:31:44.608Z,101096.81
2023-02-28T08:34:13.336Z,101107.28
2023-02-28T08:36:40.250Z,101124.47
2023-02-28T08:39:07.433Z,101123.69
2023-02-28T08:41:34.716Z,101109.94
2023-02-28T08:44:01.488Z,101141.06
2023-02-28T08:46:28.242Z,101129.84
2023-02-28T08:48:56.103Z,101099.56
2023-02-28T08:51:27.909Z,101130.88
2023-02-28T08:53:56.007Z,101128.09
2023-02-28T08:56:23.010Z,101078.00
2023-02-28T08:58:50.288Z,101124.44
2023-02-28T09:01:17.107Z,101151.88
2023-02-28T09:03:44.271Z,101160.50
2023-02-28T09:06:11.354Z,101095.53
2023-02-28T09:08:38.103Z,101129.84
2023-02-28T09:11:05.136Z,101115.44
2023-02-28T09:13:33.365Z,101133.16
2023-02-28T09:16:01.055Z,101107.81
2023-02-28T09:18:28.006Z,101136.84
2023-02-28T09:20:54.735Z,101126.69
2023-02-28T09:23:21.793Z,101137.34
2023-02-28T09:25:49.924Z,101110.91
2023-02-28T09:28:17.913Z,101155.13
2023-02-28T09:30:52.735Z,101151.31
2023-02-28T09:33:21.850Z,101098.72
2023-02-28T09:35:52.059Z,101133.22
2023-02-28T09:38:19.020Z,101136.41
2023-02-28T09:40:54.420Z,101157.56
2023-02-28T09:43:22.539Z,101157.94
2023-02-28T09:45:52.905Z,101162.63
2023-02-28T09:48:25.016Z,101146.03
2023-02-28T09:51:02.330Z,101072.69
2023-02-28T09:53:37.172Z,101109.13
2023-02-28T09:56:18.815Z,101066.47
2023-02-28T09:58:50.499Z,101168.19
2023-02-28T10:01:26.356Z,101126.47
2023-02-28T10:04:23.125Z,101105.63
2023-02-28T10:06:53.062Z,101113.53
2023-02-28T10:09:28.106Z,101136.16
2023-02-28T10:11:58.417Z,101121.56
2023-02-28T10:14:27.347Z,101118.78
2023-02-28T10:17:17.130Z,101151.72
2023-02-28T10:19:44.018Z,101162.97
2023-02-28T10:22:11.794Z,101167.50
2023-02-28T10:24:45.816Z,101158.34
2023-02-28T10:27:26.265Z,101156.03
2023-02-28T10:29:54.791Z,101136.75
2023-02-28T10:32:25.354Z,101137.47
2023-02-28T10:35:02.811Z,101153.34
2023-02-28T10:37:29.737Z,101131.78
2023-02-28T10:39:57.486Z,101142.41
2023-02-28T10:42:29.197Z,101139.16
2023-02-28T10:45:16.578Z,101107.28
2023-02-28T10:47:54.023Z,101100.19
2023-02-28T10:50:39.411Z,101051.28
2023-02-28T10:53:24.853Z,101094.56
2023-02-28T10:56:00.912Z,101145.09
2023-02-28T10:58:49.578Z,101137.84
2023-02-28T11:01:19.188Z,101032.41
2023-02-28T11:03:45.822Z,101132.75
2023-02-28T11:06:22.900Z,101141.66
2023-02-28T11:08:57.123Z,101132.91
2023-02-28T11:11:26.072Z,101129.19
2023-02-28T11:13:54.544Z,101086.84
2023-02-28T11:16:21.387Z,101125.03
2023-02-28T11:18:53.458Z,101060.31
2023-02-28T11:21:29.998Z,101099.50
2023-02-28T11:24:07.166Z,101077.09
2023-02-28T11:26:47.746Z,101104.72
2023-02-28T11:29:20.300Z,101086.66
2023-02-28T11:32:10.140Z,101097.78
2023-02-28T11:34:38.035Z,101106.53
2023-02-28T11:37:06.588Z,101095.34
2023-02-28T11:39:34.331Z,101132.34
2023-02-28T11:42:12.872Z,101123.22
2023-02-28T11:45:01.441Z,101116.25
2023-02-28T11:47:31.263Z,101111.59
2023-02-28T11:50:34.733Z,101121.53
2023-02-28T11:53:07.197Z,101112.47
2023-02-28T11:55:51.527Z,101064.56
2023-02-28T11:58:37.376Z,101077.50
2023-02-28T12:01:19.790Z,101114.22
2023-02-28T12:04:08.248Z,101102.53
2023-02-28T12:06:40.396Z,101096.50
2023-02-28T12:09:25.852Z,101111.66
2023-02-28T12:11:55.130Z,101110.47
2023-02-28T12:14:37.021Z,101083.13
2023-02-28T12:17:25.276Z,101085.03
2023-02-28T12:20:05.155Z,101080.75
2023-02-28T12:22:50.795Z,101046.47
2023-02-28T12:25:37.699Z,101090.44
2023-02-28T12:28:04.594Z,101058.34
2023-02-28T12:30:36.108Z,101050.59
2023-02-28T12:33:08.407Z,101091.81
2023-02-28T12:35:38.513Z,101072.75
2023-02-28T12:38:10.599Z,101061.84
2023-02-28T12:41:02.601Z,101074.25
2023-02-28T12:43:38.075Z,101067.75
2023-02-28T12:46:21.104Z,101081.03
2023-02-28T12:48:49.854Z,101047.09
2023-02-28T12:51:16.888Z,101034.28
2023-02-28T12:53:56.514Z,101049.19
2023-02-28T12:56:31.198Z,101039.00
2023-02-28T12:59:08.680Z,101036.13
2023-02-28T13:01:53.603Z,100969.38
2023-02-28T13:04:58.042Z,101035.41
2023-02-28T13:07:42.760Z,101037.34
2023-02-28T13:10:09.953Z,101019.03
2023-02-28T13:12:37.010Z,101014.94
2023-02-28T13:15:17.681Z,101023.94
2023-02-28T13:17:44.782Z,101018.53
2023-02-28T13:20:38.569Z,100997.59
2023-02-28T13:23:08.027Z,100996.19
2023-02-28T13:25:34.815Z,101001.69
2023-02-28T13:28:05.349Z,100991.50
2023-02-28T13:30:55.623Z,100982.09
2023-02-28T13:33:51.064Z,100947.84
2023-02-28T13:36:20.918Z,100971.06
2023-02-28T13:38:49.274Z,100975.25
2023-02-28T13:41:36.986Z,100969.13
2023-02-28T13:44:09.776Z,100957.91
2023-02-28T13:46:49.778Z,100969.22
2023-02-28T13:49:37.914Z,100943.22
2023-02-28T13:52:07.613Z,100938.88
2023-02-28T13:54:42.484Z,100954.91
2023-02-28T13:57:32.490Z,100930.72
2023-02-28T14:00:19.277Z,100942.53
2023-02-28T14:03:12.252Z,100893.88
2023-02-28T14:05:39.979Z,100939.41
2023-02-28T14:08:22.066Z,100867.13
2023-02-28T14:10:52.944Z,100908.81
2023-02-28T14:13:28.774Z,100916.34
2023-02-28T14:16:05.620Z,100925.31
2023-02-28T14:18:39.215Z,100861.78
2023-02-28T14:21:22.014Z,100916.69
2023-02-28T14:24:07.835Z,100911.03
2023-02-28T14:26:44.375Z,100918.63
2023-02-28T14:29:48.554Z,100910.41
2023-02-28T14:32:23.002Z,100904.22
2023-02-28T14:35:02.159Z,100897.88
2023-02-28T14:37:34.662Z,100831.13
2023-02-28T14:40:01.821Z,100865.78
2023-02-28T14:42:32.055Z,100852.38
2023-02-28T14:44:59.307Z,100852.81
2023-02-28T14:47:32.116Z,100890.78
2023-02-28T14:50:00.115Z,100859.47
2023-02-28T14:52:31.046Z,100876.88
2023-02-28T14:55:13.018Z,100900.06
2023-02-28T14:57:51.555Z,100854.28
2023-02-28T15:00:31.409Z,100869.72
2023-02-28T15:02:58.576Z,100883.38
2023-02-28T15:05:26.912Z,100852.09
2023-02-28T15:08:07.495Z,100889.81
2023-02-28T15:10:34.537Z,100842.09
2023-02-28T15:13:03.142Z,100867.31
2023-02-28T15:16:01.907Z,100874.00
2023-02-28T15:18:49.817Z,100857.22
2023-02-28T15:21:24.937Z,100863.66
2023-02-28T15:23:58.674Z,100879.09
2023-02-28T15:26:29.066Z,100810.88
2023-02-28T15:29:06.088Z,100801.44
2023-02-28T15:31:50.311Z,100844.13
2023-02-28T15:34:44.020Z,100861.44
2023-02-28T15:37:28.568Z,100858.56
2023-02-28T15:39:56.672Z,100798.84
2023-02-28T15:42:25.104Z,100815.53
2023-02-28T15:44:52.542Z,100835.97
2023-02-28T15:47:21.462Z,100805.56
2023-02-28T15:49:52.783Z,100854.88
2023-02-28T15:52:44.941Z,100852.09
2023-02-28T15:55:17.501Z,100838.72
2023-02-28T15:57:44.325Z,100800.72
2023-02-28T16:00:14.258Z,100845.06
2023-02-28T16:02:41.277Z,100851.22
2023-02-28T16:05:11.500Z,100833.81
2023-02-28T16:07:45.344Z,100799.81
2023-02-28T16:10:13.755Z,100816.53
2023-02-28T16:12:40.704Z,100842.00
2023-02-28T16:15:29.817Z,100792.34
2023-02-28T16:17:57.269Z,100821.88
2023-02-28T16:20:29.125Z,100782.53
2023-02-28T16:22:56.149Z,100764.66
2023-02-28T16:25:30.217Z,100744.03
2023-02-28T16:27:58.760Z,100803.22
2023-02-28T16:30:26.393Z,100777.41
2023-02-28T16:32:53.519Z,100767.13
2023-02-28T16:35:20.754Z,100781.66
2023-02-28T16:37:47.628Z,100778.13
2023-02-28T16:40:22.597Z,100773.66
2023-02-28T16:42:50.425Z,100779.50
2023-02-28T16:45:20.319Z,100791.44
2023-02-28T16:47:47.352Z,100814.41
2023-02-28T16:50:24.256Z,100796.03
2023-02-28T16:52:53.394Z,100750.66
2023-02-28T16:55:20.163Z,100755.94
2023-02-28T16:57:50.408Z,100824.59
2023-02-28T17:00:17.604Z,100814.03
2023-02-28T17:02:44.483Z,100782.88
2023-02-28T17:05:15.262Z,100781.78
2023-02-28T17:07:42.571Z,100790.19
2023-02-28T17:10:17.638Z,100791.56
2023-02-28T17:12:44.650Z,100790.47
2023-02-28T17:15:15.280Z,100782.41
2023-02-28T17:17:42.523Z,100762.91
2023-02-28T17:20:23.626Z,100756.47
2023-02-28T17:22:55.584Z,100822.06
2023-02-28T17:25:22.604Z,100754.97
2023-02-28T17:27:49.798Z,100842.34
2023-02-28T17:30:17.080Z,100836.44
2023-02-28T17:32:43.963Z,100808.31
2023-02-28T17:35:11.008Z,100796.31
2023-02-28T17:37:37.789Z,100812.84
2023-02-28T17:40:05.549Z,100781.28
2023-02-28T17:42:32.761Z,100818.19
2023-02-28T17:44:59.584Z,100844.50
2023-02-28T17:47:26.514Z,100829.72
2023-02-28T17:49:53.398Z,100814.34
2023-02-28T17:52:20.250Z,100816.91
2023-02-28T17:54:46.989Z,100800.97
2023-02-28T17:57:15.850Z,100793.44
2023-02-28T17:59:43.241Z,100775.09
2023-02-28T18:02:12.163Z,100832.31
2023-02-28T18:04:39.106Z,100835.69
2023-02-28T18:07:07.221Z,100799.97
2023-02-28T18:09:33.972Z,100789.97
2023-02-28T18:12:00.886Z,100804.78
2023-02-28T18:14:27.689Z,100846.72
2023-02-28T18:16:54.764Z,100835.56
2023-02-28T18:19:22.118Z,100848.75
2023-02-28T18:21:50.114Z,100821.94
2023-02-28T18:24:17.672Z,100715.00
2023-02-28T18:26:44.934Z,100836.84
2023-02-28T18:29:25.979Z,100818.13
2023-02-28T18:31:53.531Z,100815.06
2023-02-28T18:34:21.467Z,100763.09
2023-02-28T18:36:48.920Z,100856.16
2023-02-28T18:39:15.984Z,100794.44
2023-02-28T18:41:42.835Z,100859.81
2023-02-28T18:44:19.159Z,100724.88
2023-02-28T18:46:46.626Z,100862.09
2023-02-28T18:49:13.645Z,100828.00
2023-02-28T18:51:45.133Z,100816.56
2023-02-28T18:54:13.014Z,100793.38
2023-02-28T18:56:39.840Z,100829.72
2023-02-28T18:59:07.164Z,100847.63
2023-02-28T19:01:34.286Z,100839.81
2023-02-28T19:04:01.586Z,100752.31
2023-02-28T19:06:29.958Z,100782.19
2023-02-28T19:08:58.013Z,100852.09
2023-02-28T19:11:24.922Z,100822.72
2023-02-28T19:13:51.761Z,100866.38
2023-02-28T19:16:19.390Z,100866.09
2023-02-28T19:18:46.198Z,100868.34
2023-02-28T19:21:14.084Z,100846.53
2023-02-28T19:23:41.175Z,100865.00
2023-02-28T19:26:11.986Z,100831.69
2023-02-28T19:28:38.999Z,100854.34
2023-02-28T19:31:06.075Z,100769.66
2023-02-28T19:33:32.846Z,100844.84
2023-02-28T19:36:01.285Z,100861.09
2023-02-28T19:38:28.305Z,100872.00
2023-02-28T19:41:06.015Z,100819.41
2023-02-28T19:43:32.856Z,100889.06
2023-02-28T19:45:59.696Z,100851.00
2023-02-28T19:48:28.176Z,100855.47
2023-02-28T19:51:04.897Z,100875.06
2023-02-28T19:53:31.978Z,100846.50
2023-02-28T19:56:00.538Z,100823.59
2023-02-28T19:58:27.639Z,100840.38
2023-02-28T20:00:54.473Z,100817.44
2023-02-28T20:03:21.429Z,100861.06
2023-02-28T20:05:48.380Z,100858.56
2023-02-28T20:08:15.416Z,100839.25
2023-02-28T20:10:42.220Z,100733.56
2023-02-28T20:13:09.121Z,100793.38
2023-02-28T20:15:37.744Z,100799.00
2023-02-28T20:18:05.089Z,100864.44
2023-02-28T20:20:32.008Z,100832.28
2023-02-28T20:22:58.916Z,100842.06
2023-02-28T20:25:25.801Z,100834.78
2023-02-28T20:27:52.749Z,100838.97
2023-02-28T20:30:22.978Z,100824.16
2023-02-28T20:32:49.921Z,100810.72
2023-02-28T20:35:16.807Z,100816.59
2023-02-28T20:37:44.940Z,100851.53
2023-02-28T20:40:12.697Z,100858.84
2023-02-28T20:42:39.633Z,100857.41
2023-02-28T20:45:07.022Z,100832.25
2023-02-28T20:47:33.873Z,100860.50
2023-02-28T20:50:00.615Z,100859.94
2023-02-28T20:52:27.515Z,100864.13
2023-02-28T20:54:54.279Z,100851.22
2023-02-28T20:57:21.125Z,100858.81
2023-02-28T20:59:48.137Z,100802.25
2023-02-28T21:02:16.902Z,100864.38
2023-02-28T21:04:43.772Z,100840.31
2023-02-28T21:07:10.668Z,100869.97
2023-02-28T21:09:37.449Z,100835.84
2023-02-28T21:12:04.336Z,100834.72
2023-02-28T21:14:32.429Z,100859.06
2023-02-28T21:16:59.231Z,100806.69
2023-02-28T21:19:26.044Z,100830.19
2023-02-28T21:21:54.471Z,100806.69
2023-02-28T21:24:21.400Z,100846.66
2023-02-28T21:26:48.460Z,100806.06
2023-02-28T21:29:15.584Z,100816.16
2023-02-28T21:31:42.441Z,100863.75
2023-02-28T21:34:09.818Z,100857.00
2023-02-28T21:36:39.783Z,100826.50
2023-02-28T21:39:13.142Z,100862.59
2023-02-28T21:41:40.162Z,100827.56
2023-02-28T21:44:07.032Z,100855.00
2023-02-28T21:46:34.123Z,100855.28
2023-02-28T21:49:01.434Z,100870.97
2023-02-28T21:51:31.346Z,100814.41
2023-02-28T21:53:59.244Z,100886.00
2023-02-28T21:56:28.419Z,100840.06
2023-02-28T21:59:01.602Z,100836.75
2023-02-28T22:01:35.630Z,100856.91
2023-02-28T22:04:03.482Z,100770.00
2023-02-28T22:06:32.578Z,100869.47
2023-02-28T22:09:02.261Z,100671.28
2023-02-28T22:11:29.168Z,100819.91
2023-02-28T22:13:57.261Z,100837.84
2023-02-28T22:16:25.008Z,100801.34
2023-02-28T22:18:51.894Z,100815.88
2023-02-28T22:21:19.131Z,100810.00
2023-02-28T22:23:46.127Z,100866.81
2023-02-28T22:26:15.599Z,100756.56
2023-02-28T22:28:42.564Z,100724.31
2023-02-28T22:31:20.192Z,100803.47
2023-02-28T22:33:47.237Z,100911.16
2023-02-28T22:36:15.137Z,100857.56
2023-02-28T22:38:42.985Z,100748.09
2023-02-28T22:41:10.181Z,100857.84
2023-02-28T22:43:37.075Z,100802.34
2023-02-28T22:46:04.932Z,100741.25
2023-02-28T22:48:31.795Z,100820.78
2023-02-28T22:51:06.453Z,100737.94
2023-02-28T22:53:34.349Z,100848.22
2023-02-28T22:56:01.260Z,100755.19
2023-02-28T22:58:28.265Z,100882.00
2023-02-28T23:00:55.088Z,100663.28
2023-02-28T23:03:25.475Z,100832.41
2023-02-28T23:05:52.869Z,100846.41
2023-02-28T23:08:23.429Z,100876.66
2023-02-28T23:10:51.168Z,100821.19
2023-02-28T23:13:18.935Z,100806.34
2023-02-28T23:15:46.043Z,100796.53
2023-02-28T23:18:13.131Z,100843.25
2023-02-28T23:20:39.977Z,100868.66
2023-02-28T23:23:06.804Z,100853.50
2023-02-28T23:25:33.905Z,100842.78
2023-02-28T23:28:01.298Z,100856.22
2023-02-28T23:30:28.107Z,100815.94
2023-02-28T23:32:55.426Z,100885.16
2023-02-28T23:35:23.019Z,100864.72
2023-02-28T23:37:50.015Z,100861.34
2023-02-28T23:40:17.407Z,100746.47
2023-02-28T23:42:45.155Z,100887.66
2023-02-28T23:45:14.316Z,100869.69
2023-02-28T23:47:41.696Z,100815.13
2023-02-28T23:50:09.406Z,100860.75
2023-02-28T23:52:36.236Z,100847.31
2023-02-28T23:55:03.133Z,100873.38
2023-02-28T23:57:30.070Z,100884.53
2023-02-28T23:59:57.009Z,100871.66
